KSWO/SWO METAR and TAF weather

Enter ICAO airport designator
Station Type Date Time Source
KSWO METAR 2020/07/04 08:43 UTC NOAA

KSWO 040843Z AUTO 00000KT 10SM VCTS BKN055 24/22 A2996 RMK AO2 LTG DSNT S-W RAE0755 P0000 T02440222


Station Type Date Time Source
KSWO Decoded METAR 2020/07/04 08:43 UTC NOAA

STILLWATER REGIONAL AIRPORT, OK, United States (KSWO) 36-10N 97-05W 290M
Jul 04, 2020 - 04:43 AM EDT / 2020.07.04 0843 UTC
Wind: Calm:0
Visibility: 10 mile(s):0
Sky conditions: mostly cloudy
Weather: thunder in the vicinity; Lightning observed
Precipitation last hour: A trace
Temperature: 75.9 F (24.4 C)
Dew Point: 72.0 F (22.2 C)
Relative Humidity: 87%
Pressure (altimeter): 29.96 in. Hg (1014 hPa)
ob: KSWO 040843Z AUTO 00000KT 10SM VCTS BKN055 24/22 A2996 RMK AO2 LTG DSNT S-W RAE0755 P0000 T02440222
cycle: 8

Station Type Date Time Source
KSWO TAF UTC NOAA

Error!

Example: see airport list